Portada
METAR-TAF:

METAR-TAF

Aeroports :

Alderney,

latitud: 49-43N, longitud: 002-12W, altitud: 71 m

Observació

L'informe es va fer fa 38 minuts, a les 14:20 UTC
Vent 12 kt del Est/Nord-Est
Temperatura 9°C
Humitat 76%
Pressió 1039 hPa
Visibilitat 10 km o més
Escasses núvols a una alçada de 1300 ft

METAR: EGJA 271420Z 07012KT 9999 FEW013 09/05 Q1039

Hora: 14:58 (14:58 UTC)

Pronòstic

L'informe es va fer fa 54 minuts, a les 14:04 UTC
Pronòstic vàlid del 27 a les 15 UTC al 28 a les 00 UTC
Vent 11 kt del Est/Nord-Est
Visibilitat 10 km o més
Escasses núvols a una alçada de 1500 ft

TAF: EGJA 271404Z 2715/2800 06011KT 9999 FEW015

Observacions i pronòstics meteorològics de més de 4000 aeroports (METAR i TAF).

Les estacions disponibles són els punts grocs i vermells al mapa.

Posi el ratolí al punt desitjat per veure el nom de l'estació.

Feu clic per veure les observacions i els pronòstics meteorològics.

Per canviar el mapa: feu clic els botons verds amb una creu de color negre per apropar; al botó verd amb un guió per allunyar la imatge; o en les fletxes verdes per a mapes adjacents.


METAR-TAF: